createdAt,value
2019-03-26T00:01:46.449Z,99.90
2019-03-26T00:04:17.221Z,99.90
2019-03-26T00:06:47.858Z,99.90
2019-03-26T00:09:18.598Z,99.90
2019-03-26T00:11:49.201Z,99.90
2019-03-26T00:14:21.130Z,99.90
2019-03-26T00:16:51.998Z,99.90
2019-03-26T00:19:33.555Z,99.90
2019-03-26T00:22:04.226Z,99.90
2019-03-26T00:24:34.953Z,99.90
2019-03-26T00:27:07.841Z,99.90
2019-03-26T00:29:38.114Z,99.90
2019-03-26T00:32:27.497Z,99.90
2019-03-26T00:34:58.155Z,99.90
2019-03-26T00:37:28.854Z,99.90
2019-03-26T00:39:59.494Z,99.90
2019-03-26T00:42:31.254Z,99.90
2019-03-26T00:45:01.997Z,99.90
2019-03-26T00:47:32.825Z,99.90
2019-03-26T00:50:05.554Z,99.90
2019-03-26T00:52:36.293Z,99.90
2019-03-26T00:55:07.440Z,99.90
2019-03-26T00:57:38.181Z,99.90
2019-03-26T01:00:10.018Z,99.90
2019-03-26T01:02:40.822Z,99.90
2019-03-26T01:05:11.686Z,99.90
2019-03-26T01:07:42.445Z,99.90
2019-03-26T01:10:22.470Z,99.90
2019-03-26T01:12:53.098Z,99.90
2019-03-26T01:15:23.761Z,99.90
2019-03-26T01:17:54.463Z,99.90
2019-03-26T01:20:25.093Z,99.90
2019-03-26T01:22:55.773Z,99.90
2019-03-26T01:25:26.498Z,99.90
2019-03-26T01:27:57.217Z,99.90
2019-03-26T01:30:27.947Z,99.90
2019-03-26T01:32:58.630Z,99.90
2019-03-26T01:35:29.308Z,99.90
2019-03-26T01:38:00.009Z,99.90
2019-03-26T01:40:30.641Z,99.90
2019-03-26T01:43:01.381Z,99.90
2019-03-26T01:45:32.079Z,99.90
2019-03-26T01:48:02.854Z,99.90
2019-03-26T01:50:33.668Z,99.90
2019-03-26T01:53:04.376Z,99.90
2019-03-26T01:55:35.010Z,99.90
2019-03-26T01:58:05.741Z,99.90
2019-03-26T02:00:36.477Z,99.90
2019-03-26T02:03:07.185Z,99.90
2019-03-26T02:05:38.941Z,99.90
2019-03-26T02:08:09.583Z,99.90
2019-03-26T02:10:40.317Z,99.90
2019-03-26T02:13:11.065Z,99.90
2019-03-26T02:15:41.718Z,99.90
2019-03-26T02:18:13.417Z,99.90
2019-03-26T02:20:44.085Z,99.90
2019-03-26T02:23:14.858Z,99.90
2019-03-26T02:25:45.541Z,99.90
2019-03-26T02:28:16.396Z,99.90
2019-03-26T02:30:47.132Z,99.90
2019-03-26T02:33:19.242Z,99.90
2019-03-26T02:35:49.939Z,99.90
2019-03-26T02:38:20.587Z,99.90
2019-03-26T02:40:51.281Z,99.90
2019-03-26T02:43:22.026Z,99.90
2019-03-26T02:45:52.658Z,99.90
2019-03-26T02:48:23.437Z,99.90
2019-03-26T02:50:54.106Z,99.90
2019-03-26T02:53:24.897Z,99.90
2019-03-26T02:55:55.695Z,99.90
2019-03-26T02:58:26.416Z,99.90
2019-03-26T03:00:57.218Z,99.90
2019-03-26T03:03:27.974Z,99.90
2019-03-26T03:05:58.677Z,99.90
2019-03-26T03:08:29.447Z,99.90
2019-03-26T03:11:00.079Z,99.90
2019-03-26T03:13:30.885Z,99.90
2019-03-26T03:16:01.587Z,99.90
2019-03-26T03:18:32.255Z,99.90
2019-03-26T03:21:02.911Z,99.90
2019-03-26T03:23:33.725Z,99.90
2019-03-26T03:26:04.374Z,99.90
2019-03-26T03:28:36.204Z,99.90
2019-03-26T03:31:06.982Z,99.90
2019-03-26T03:33:37.864Z,99.90
2019-03-26T03:36:08.567Z,99.90
2019-03-26T03:38:41.345Z,99.90
2019-03-26T03:41:11.569Z,99.90
2019-03-26T03:43:42.429Z,99.90
2019-03-26T03:46:13.180Z,99.90
2019-03-26T03:48:45.339Z,99.90
2019-03-26T03:51:19.201Z,99.90
2019-03-26T03:53:49.876Z,99.90
2019-03-26T03:56:22.667Z,99.90
2019-03-26T03:58:54.436Z,99.90
2019-03-26T04:01:25.222Z,99.90
2019-03-26T04:03:55.890Z,99.90
2019-03-26T04:06:26.589Z,99.90
2019-03-26T04:08:57.342Z,99.90
2019-03-26T04:11:27.950Z,99.90
2019-03-26T04:13:58.739Z,99.90
2019-03-26T04:16:29.360Z,99.90
2019-03-26T04:19:00.188Z,99.90
2019-03-26T04:21:30.858Z,99.90
2019-03-26T04:24:01.591Z,99.90
2019-03-26T04:26:32.174Z,99.90
2019-03-26T04:29:02.957Z,99.90
2019-03-26T04:31:33.718Z,99.90
2019-03-26T04:34:04.391Z,99.90
2019-03-26T04:36:35.109Z,99.90
2019-03-26T04:39:06.928Z,99.90
2019-03-26T04:41:37.621Z,99.90
2019-03-26T04:44:08.373Z,99.90
2019-03-26T04:46:39.047Z,99.90
2019-03-26T04:49:09.746Z,99.90
2019-03-26T04:51:40.429Z,99.90
2019-03-26T04:54:11.181Z,99.90
2019-03-26T04:56:41.897Z,99.90
2019-03-26T04:59:12.570Z,99.90
2019-03-26T05:01:43.253Z,99.90
2019-03-26T05:04:14.037Z,99.90
2019-03-26T05:06:44.761Z,99.90
2019-03-26T05:09:15.502Z,99.90
2019-03-26T05:11:46.162Z,99.90
2019-03-26T05:14:16.834Z,99.90
2019-03-26T05:16:47.446Z,99.90
2019-03-26T05:19:18.069Z,99.90
2019-03-26T05:21:48.705Z,99.90
2019-03-26T05:24:19.401Z,99.90
2019-03-26T05:26:50.170Z,99.90
2019-03-26T05:29:20.882Z,99.90
2019-03-26T05:31:51.653Z,99.90
2019-03-26T05:34:22.378Z,99.90
2019-03-26T05:36:53.116Z,99.90
2019-03-26T05:39:23.929Z,99.90
2019-03-26T05:41:54.694Z,99.90
2019-03-26T05:44:25.441Z,99.90
2019-03-26T05:46:56.116Z,99.90
2019-03-26T05:49:26.889Z,99.90
2019-03-26T05:51:57.538Z,99.90
2019-03-26T05:54:28.299Z,99.90
2019-03-26T05:56:59.022Z,99.90
2019-03-26T05:59:29.737Z,99.90
2019-03-26T06:02:13.228Z,99.90
2019-03-26T06:04:32.817Z,99.90
2019-03-26T06:07:05.179Z,99.90
2019-03-26T06:09:35.877Z,99.90
2019-03-26T06:12:06.481Z,99.90
2019-03-26T06:14:37.181Z,99.90
2019-03-26T06:17:07.936Z,99.90
2019-03-26T06:19:38.663Z,99.90
2019-03-26T06:22:09.254Z,99.90
2019-03-26T06:24:39.895Z,99.90
2019-03-26T06:27:10.584Z,99.90
2019-03-26T06:29:41.259Z,99.90
2019-03-26T06:32:11.966Z,99.90
2019-03-26T06:34:42.721Z,99.90
2019-03-26T06:37:18.042Z,99.90
2019-03-26T06:39:45.905Z,99.90
2019-03-26T06:42:16.555Z,99.90
2019-03-26T06:44:47.309Z,99.90
2019-03-26T06:47:17.885Z,99.90
2019-03-26T06:49:48.571Z,99.90
2019-03-26T06:52:19.174Z,99.90
2019-03-26T06:54:51.693Z,99.90
2019-03-26T06:57:35.011Z,99.90
2019-03-26T06:59:55.585Z,99.90
2019-03-26T07:02:26.166Z,99.90
2019-03-26T07:04:56.786Z,99.90
2019-03-26T07:07:31.663Z,99.90
2019-03-26T07:09:59.910Z,99.90
2019-03-26T07:12:30.586Z,99.90
2019-03-26T07:15:01.343Z,99.90
2019-03-26T07:17:32.106Z,99.90
2019-03-26T07:20:03.068Z,99.90
2019-03-26T07:22:33.866Z,99.90
2019-03-26T07:25:04.708Z,99.90
2019-03-26T07:27:35.383Z,99.90
2019-03-26T07:30:06.614Z,99.90
2019-03-26T07:32:37.372Z,99.90
2019-03-26T07:35:09.165Z,99.90
2019-03-26T07:37:45.644Z,99.90
2019-03-26T07:40:12.814Z,99.90
2019-03-26T07:42:46.367Z,99.90
2019-03-26T07:45:17.055Z,99.90
2019-03-26T07:47:47.689Z,99.90
2019-03-26T07:50:18.330Z,99.90
2019-03-26T07:52:49.074Z,99.90
2019-03-26T07:55:26.140Z,99.90
2019-03-26T07:58:01.257Z,99.90
2019-03-26T08:00:36.882Z,99.90
2019-03-26T08:03:07.976Z,99.90
2019-03-26T08:05:38.650Z,99.90
2019-03-26T08:08:09.354Z,99.90
2019-03-26T08:10:40.202Z,99.90
2019-03-26T08:13:10.950Z,99.90
2019-03-26T08:15:41.624Z,99.90
2019-03-26T08:18:12.302Z,99.90
2019-03-26T08:20:42.992Z,99.90
2019-03-26T08:23:13.698Z,99.90
2019-03-26T08:25:44.505Z,99.90
2019-03-26T08:28:15.100Z,99.90
2019-03-26T08:30:45.830Z,99.90
2019-03-26T08:33:16.702Z,99.90
2019-03-26T08:35:47.457Z,99.90
2019-03-26T08:38:18.133Z,99.90
2019-03-26T08:40:48.776Z,99.90
2019-03-26T08:43:19.479Z,99.90
2019-03-26T08:45:50.277Z,99.90
2019-03-26T08:48:21.986Z,99.90
2019-03-26T08:50:52.713Z,99.90
2019-03-26T08:53:23.436Z,99.90
2019-03-26T08:55:54.149Z,99.90
2019-03-26T08:58:24.798Z,99.90
2019-03-26T09:00:55.438Z,99.90
2019-03-26T09:03:26.137Z,99.90
2019-03-26T09:05:56.736Z,99.90
2019-03-26T09:08:27.474Z,99.90
2019-03-26T09:10:58.190Z,99.90
2019-03-26T09:13:28.803Z,99.90
2019-03-26T09:16:00.274Z,99.90
2019-03-26T09:18:30.949Z,99.90
2019-03-26T09:21:01.605Z,99.90
2019-03-26T09:23:32.244Z,99.90
2019-03-26T09:26:03.133Z,99.90
2019-03-26T09:28:33.884Z,99.90
2019-03-26T09:31:04.729Z,99.90
2019-03-26T09:33:36.395Z,99.90
2019-03-26T09:36:07.192Z,99.90
2019-03-26T09:38:39.374Z,99.90
2019-03-26T09:41:10.190Z,99.90
2019-03-26T09:43:40.966Z,99.90
2019-03-26T09:46:11.662Z,99.90
2019-03-26T09:48:42.285Z,99.90
2019-03-26T09:51:12.959Z,99.90
2019-03-26T09:53:43.630Z,99.90
2019-03-26T09:56:27.694Z,99.90
2019-03-26T09:58:46.867Z,99.90
2019-03-26T10:01:17.805Z,99.90
2019-03-26T10:03:48.388Z,99.90
2019-03-26T10:06:23.744Z,99.90
2019-03-26T10:08:52.890Z,99.90
2019-03-26T10:11:23.756Z,99.90
2019-03-26T10:13:54.412Z,99.90
2019-03-26T10:16:25.191Z,99.90
2019-03-26T10:18:55.802Z,99.90
2019-03-26T10:21:26.461Z,99.90
2019-03-26T10:23:57.162Z,99.90
2019-03-26T10:26:27.911Z,99.90
2019-03-26T10:28:58.622Z,99.90
2019-03-26T10:31:29.422Z,99.90
2019-03-26T10:34:00.106Z,99.90
2019-03-26T10:36:30.986Z,99.90
2019-03-26T10:39:05.264Z,99.90
2019-03-26T10:41:34.382Z,99.90
2019-03-26T10:44:05.067Z,99.90
2019-03-26T10:46:36.623Z,99.90
2019-03-26T10:49:07.313Z,99.90
2019-03-26T10:51:38.199Z,99.90
2019-03-26T10:54:08.827Z,99.90
2019-03-26T10:56:39.729Z,99.90
2019-03-26T10:59:10.501Z,99.90
2019-03-26T11:01:41.205Z,99.90
2019-03-26T11:04:11.935Z,99.90
2019-03-26T11:06:42.674Z,99.90
2019-03-26T11:09:21.358Z,99.90
2019-03-26T11:11:45.761Z,99.90
2019-03-26T11:14:16.369Z,99.90
2019-03-26T11:16:47.214Z,99.90
2019-03-26T11:19:18.012Z,99.90
2019-03-26T11:21:48.708Z,99.90
2019-03-26T11:24:19.489Z,99.90
2019-03-26T11:26:50.197Z,99.90
2019-03-26T11:29:21.001Z,99.90
2019-03-26T11:31:51.758Z,99.90
2019-03-26T11:34:22.449Z,99.90
2019-03-26T11:36:53.177Z,99.90
2019-03-26T11:39:32.589Z,99.90
2019-03-26T11:41:56.285Z,99.90
2019-03-26T11:44:27.146Z,99.60
2019-03-26T11:46:58.003Z,99.00
2019-03-26T11:49:28.766Z,98.90
2019-03-26T11:51:59.515Z,99.20
2019-03-26T11:54:30.251Z,98.80
2019-03-26T11:57:01.173Z,99.00
2019-03-26T11:59:31.758Z,99.70
2019-03-26T12:02:02.493Z,98.80
2019-03-26T12:04:33.217Z,99.00
2019-03-26T12:07:03.890Z,99.10
2019-03-26T12:09:45.602Z,98.70
2019-03-26T12:12:06.923Z,98.60
2019-03-26T12:14:37.665Z,98.60
2019-03-26T12:17:08.386Z,98.40
2019-03-26T12:19:39.037Z,98.80
2019-03-26T12:22:09.687Z,99.40
2019-03-26T12:24:40.526Z,99.90
2019-03-26T12:27:11.111Z,99.00
2019-03-26T12:29:41.923Z,98.00
2019-03-26T12:32:12.797Z,96.10
2019-03-26T12:34:43.620Z,95.40
2019-03-26T12:37:14.365Z,94.30
2019-03-26T12:39:45.051Z,93.80
2019-03-26T12:42:15.885Z,93.50
2019-03-26T12:44:46.483Z,94.10
2019-03-26T12:47:17.134Z,93.80
2019-03-26T12:49:47.761Z,92.60
2019-03-26T12:52:18.583Z,92.40
2019-03-26T12:54:49.321Z,90.30
2019-03-26T12:57:20.089Z,90.90
2019-03-26T12:59:50.698Z,88.40
2019-03-26T13:02:21.689Z,88.50
2019-03-26T13:04:52.534Z,85.80
2019-03-26T13:07:23.189Z,84.70
2019-03-26T13:09:53.752Z,87.90
2019-03-26T13:12:24.356Z,88.50
2019-03-26T13:14:55.099Z,88.90
2019-03-26T13:17:25.750Z,89.00
2019-03-26T13:19:56.615Z,90.20
2019-03-26T13:22:27.373Z,89.20
2019-03-26T13:24:58.093Z,90.50
2019-03-26T13:27:28.757Z,91.20
2019-03-26T13:29:59.389Z,90.80
2019-03-26T13:32:30.150Z,90.80
2019-03-26T13:35:00.792Z,91.00
2019-03-26T13:37:31.398Z,91.40
2019-03-26T13:40:02.254Z,91.60
2019-03-26T13:42:32.981Z,91.50
2019-03-26T13:45:03.642Z,91.40
2019-03-26T13:47:34.282Z,91.60
2019-03-26T13:50:05.215Z,92.10
2019-03-26T13:52:35.857Z,92.50
2019-03-26T13:55:07.557Z,92.90
2019-03-26T13:57:38.194Z,91.60
2019-03-26T14:00:09.646Z,91.60
2019-03-26T14:02:40.292Z,91.40
2019-03-26T14:05:33.321Z,91.60
2019-03-26T14:08:03.986Z,91.80
2019-03-26T14:10:40.695Z,92.80
2019-03-26T14:13:07.136Z,93.60
2019-03-26T14:15:37.827Z,95.40
2019-03-26T14:18:08.486Z,96.20
2019-03-26T14:20:39.260Z,96.50
2019-03-26T14:23:09.869Z,97.30
2019-03-26T14:25:40.525Z,97.10
2019-03-26T14:28:11.324Z,97.60
2019-03-26T14:30:46.031Z,98.20
2019-03-26T14:33:16.846Z,99.70
2019-03-26T14:35:47.497Z,99.90
2019-03-26T14:38:18.246Z,99.20
2019-03-26T14:40:55.191Z,99.40
2019-03-26T14:43:21.462Z,99.30
2019-03-26T14:45:52.187Z,99.20
2019-03-26T14:48:22.938Z,99.90
2019-03-26T14:50:53.686Z,99.90
2019-03-26T14:53:24.448Z,99.90
2019-03-26T14:55:55.148Z,99.90
2019-03-26T14:58:25.723Z,99.90
2019-03-26T15:00:59.566Z,99.90
2019-03-26T15:03:29.781Z,99.90
2019-03-26T15:06:00.382Z,99.90
2019-03-26T15:08:31.262Z,99.90
2019-03-26T15:11:08.006Z,99.90
2019-03-26T15:13:34.389Z,99.90
2019-03-26T15:16:05.171Z,99.90
2019-03-26T15:18:35.806Z,99.90
2019-03-26T15:21:06.534Z,99.90
2019-03-26T15:23:37.206Z,99.90
2019-03-26T15:26:07.945Z,99.90
2019-03-26T15:28:38.562Z,99.90
2019-03-26T15:31:09.213Z,99.90
2019-03-26T15:33:39.893Z,99.90
2019-03-26T15:36:10.626Z,99.90
2019-03-26T15:38:41.470Z,99.90
2019-03-26T15:41:21.499Z,99.90
2019-03-26T15:43:44.793Z,99.90
2019-03-26T15:46:15.571Z,99.90
2019-03-26T15:48:46.235Z,99.90
2019-03-26T15:51:16.900Z,99.90
2019-03-26T15:53:47.701Z,99.90
2019-03-26T15:56:18.393Z,99.90
2019-03-26T15:58:49.123Z,99.90
2019-03-26T16:01:19.897Z,99.90
2019-03-26T16:03:50.725Z,99.90
2019-03-26T16:06:22.248Z,99.90
2019-03-26T16:08:52.895Z,99.90
2019-03-26T16:11:35.247Z,99.90
2019-03-26T16:13:56.054Z,99.90
2019-03-26T16:16:26.751Z,99.90
2019-03-26T16:18:57.422Z,99.90
2019-03-26T16:21:28.390Z,99.90
2019-03-26T16:23:59.117Z,99.90
2019-03-26T16:26:29.806Z,99.90
2019-03-26T16:29:00.374Z,99.90
2019-03-26T16:31:31.126Z,99.90
2019-03-26T16:34:01.738Z,99.90
2019-03-26T16:36:32.462Z,99.90
2019-03-26T16:39:03.146Z,99.90
2019-03-26T16:41:34.516Z,99.90
2019-03-26T16:44:05.206Z,99.90
2019-03-26T16:46:36.512Z,99.90
2019-03-26T16:49:07.429Z,99.90
2019-03-26T16:51:38.214Z,99.90
2019-03-26T16:54:08.842Z,99.90
2019-03-26T16:56:39.442Z,99.90
2019-03-26T16:59:10.138Z,99.90
2019-03-26T17:01:40.774Z,99.90
2019-03-26T17:04:11.562Z,99.90
2019-03-26T17:06:43.329Z,99.90
2019-03-26T17:09:15.893Z,99.90
2019-03-26T17:11:46.702Z,99.90
2019-03-26T17:14:17.318Z,99.90
2019-03-26T17:16:48.058Z,99.90
2019-03-26T17:19:18.729Z,99.90
2019-03-26T17:21:49.397Z,99.90
2019-03-26T17:24:20.145Z,99.90
2019-03-26T17:26:50.808Z,99.90
2019-03-26T17:29:21.489Z,99.90
2019-03-26T17:31:52.198Z,99.90
2019-03-26T17:34:22.942Z,99.90
2019-03-26T17:36:53.776Z,99.90
2019-03-26T17:39:24.509Z,99.90
2019-03-26T17:41:55.148Z,99.90
2019-03-26T17:44:25.968Z,99.90
2019-03-26T17:46:56.583Z,99.90
2019-03-26T17:49:27.412Z,99.90
2019-03-26T17:51:58.142Z,99.90
2019-03-26T17:54:28.937Z,99.90
2019-03-26T17:56:59.526Z,99.90
2019-03-26T17:59:30.182Z,99.90
2019-03-26T18:02:01.265Z,99.90
2019-03-26T18:04:33.266Z,99.90
2019-03-26T18:07:05.506Z,99.90
2019-03-26T18:09:36.417Z,99.90
2019-03-26T18:12:07.106Z,99.90
2019-03-26T18:14:37.871Z,99.90
2019-03-26T18:17:08.636Z,99.90
2019-03-26T18:19:39.510Z,99.90
2019-03-26T18:22:10.149Z,99.90
2019-03-26T18:24:40.906Z,99.90
2019-03-26T18:27:11.625Z,99.90
2019-03-26T18:29:42.513Z,99.90
2019-03-26T18:32:13.259Z,99.90
2019-03-26T18:34:43.896Z,99.90
2019-03-26T18:37:14.582Z,99.90
2019-03-26T18:39:45.319Z,99.90
2019-03-26T18:42:15.891Z,99.90
2019-03-26T18:44:48.417Z,99.90
2019-03-26T18:47:19.062Z,99.90
2019-03-26T18:49:49.801Z,99.90
2019-03-26T18:52:20.386Z,99.90
2019-03-26T18:54:51.122Z,99.90
2019-03-26T18:57:21.846Z,99.90
2019-03-26T18:59:52.501Z,99.90
2019-03-26T19:02:23.126Z,99.90
2019-03-26T19:04:53.869Z,99.90
2019-03-26T19:07:24.792Z,99.90
2019-03-26T19:09:55.480Z,99.90
2019-03-26T19:12:26.291Z,99.90
2019-03-26T19:14:57.138Z,99.90
2019-03-26T19:17:28.040Z,99.90
2019-03-26T19:19:59.125Z,99.90
2019-03-26T19:22:29.873Z,99.90
2019-03-26T19:25:00.629Z,99.90
2019-03-26T19:27:31.348Z,99.90
2019-03-26T19:30:02.082Z,99.90
2019-03-26T19:32:32.766Z,99.90
2019-03-26T19:35:03.561Z,99.90
2019-03-26T19:37:34.225Z,99.90
2019-03-26T19:40:05.270Z,99.90
2019-03-26T19:42:36.094Z,99.90
2019-03-26T19:45:07.003Z,99.90
2019-03-26T19:47:37.663Z,99.90
2019-03-26T19:50:09.782Z,99.90
2019-03-26T19:52:40.492Z,99.90
2019-03-26T19:55:11.233Z,99.90
2019-03-26T19:57:41.872Z,99.90
2019-03-26T20:00:15.121Z,99.90
2019-03-26T20:02:45.878Z,99.90
2019-03-26T20:05:19.779Z,99.90
2019-03-26T20:07:50.637Z,99.90
2019-03-26T20:10:21.604Z,99.90
2019-03-26T20:12:52.428Z,99.90
2019-03-26T20:15:23.295Z,99.90
2019-03-26T20:17:54.036Z,99.90
2019-03-26T20:20:24.764Z,99.90
2019-03-26T20:22:55.621Z,99.90
2019-03-26T20:25:27.693Z,99.90
2019-03-26T20:27:58.607Z,99.90
2019-03-26T20:30:29.540Z,99.90
2019-03-26T20:33:00.415Z,99.90
2019-03-26T20:35:31.298Z,99.90
2019-03-26T20:38:01.973Z,99.90
2019-03-26T20:40:32.802Z,99.90
2019-03-26T20:43:03.740Z,99.90
2019-03-26T20:45:34.670Z,99.90
2019-03-26T20:48:05.351Z,99.90
2019-03-26T20:50:36.285Z,99.90
2019-03-26T20:53:07.102Z,99.90
2019-03-26T20:55:37.863Z,99.90
2019-03-26T20:58:08.513Z,99.90
2019-03-26T21:00:41.563Z,99.90
2019-03-26T21:03:12.254Z,99.90
2019-03-26T21:05:43.098Z,99.90
2019-03-26T21:08:13.695Z,99.90
2019-03-26T21:10:44.425Z,99.90
2019-03-26T21:13:15.159Z,99.90
2019-03-26T21:15:56.682Z,99.90
2019-03-26T21:18:18.461Z,99.90
2019-03-26T21:20:49.338Z,99.90
2019-03-26T21:23:21.294Z,99.90
2019-03-26T21:25:52.164Z,99.90
2019-03-26T21:28:22.902Z,99.90
2019-03-26T21:30:53.558Z,99.90
2019-03-26T21:33:24.161Z,99.90
2019-03-26T21:35:55.053Z,99.90
2019-03-26T21:38:25.894Z,99.90
2019-03-26T21:40:56.513Z,99.90
2019-03-26T21:43:27.085Z,99.90
2019-03-26T21:45:57.745Z,99.90
2019-03-26T21:48:28.427Z,99.90
2019-03-26T21:50:59.294Z,99.90
2019-03-26T21:53:29.984Z,99.90
2019-03-26T21:56:06.424Z,99.90
2019-03-26T21:58:33.065Z,99.90
2019-03-26T22:01:03.813Z,99.90
2019-03-26T22:03:34.505Z,99.90
2019-03-26T22:06:05.341Z,99.90
2019-03-26T22:08:35.954Z,99.90
2019-03-26T22:11:06.761Z,99.90
2019-03-26T22:13:37.484Z,99.90
2019-03-26T22:16:08.178Z,99.90
2019-03-26T22:18:38.870Z,99.90
2019-03-26T22:21:09.576Z,99.90
2019-03-26T22:23:40.331Z,99.90
2019-03-26T22:26:11.134Z,99.90
2019-03-26T22:28:41.798Z,99.90
2019-03-26T22:31:12.701Z,99.90
2019-03-26T22:33:43.291Z,99.90
2019-03-26T22:36:13.961Z,99.90
2019-03-26T22:38:44.591Z,99.90
2019-03-26T22:41:15.225Z,99.90
2019-03-26T22:43:45.945Z,99.90
2019-03-26T22:46:16.714Z,99.90
2019-03-26T22:48:47.370Z,99.90
2019-03-26T22:51:18.126Z,99.90
2019-03-26T22:53:48.918Z,99.90
2019-03-26T22:56:19.710Z,99.90
2019-03-26T22:58:50.434Z,99.90
2019-03-26T23:01:21.270Z,99.90
2019-03-26T23:03:51.877Z,99.90
2019-03-26T23:06:22.804Z,99.90
2019-03-26T23:08:53.613Z,99.90
2019-03-26T23:11:24.501Z,99.90
2019-03-26T23:13:55.302Z,99.90
2019-03-26T23:16:26.145Z,99.90
2019-03-26T23:18:56.961Z,99.90
2019-03-26T23:21:27.625Z,99.90
2019-03-26T23:23:58.379Z,99.90
2019-03-26T23:26:29.276Z,99.90
2019-03-26T23:28:59.995Z,99.90
2019-03-26T23:31:30.949Z,99.90
2019-03-26T23:34:01.723Z,99.90
2019-03-26T23:36:32.335Z,99.90
2019-03-26T23:39:03.442Z,99.90
2019-03-26T23:41:35.189Z,99.90
2019-03-26T23:44:05.838Z,99.90
2019-03-26T23:46:36.470Z,99.90
2019-03-26T23:49:08.666Z,99.90
2019-03-26T23:51:40.439Z,99.90
2019-03-26T23:54:11.318Z,99.90
2019-03-26T23:56:42.022Z,99.90
2019-03-26T23:59:12.710Z,99.90
